Time;durP1;ratioP1;P1;durP2;ratioP2;P2;SDS_P1;SDS_P2;PMS_P1;PMS_P2;Temp;Humidity;BMP_temperature;BMP_pressure;BME280_temperature;BME280_humidity;BME280_pressure;Samples;Min_cycle;Max_cycle;Signal;HPM_P1;HPM_P2
2023/09/04 00:00:18;;;;;;;19.70;5.30;;;;;;;;;;4984658;28;20418;-75
2023/09/04 00:02:48;;;;;;;20.15;5.70;;;;;;;;;;4979117;28;20408;-75
2023/09/04 00:05:18;;;;;;;18.58;5.75;;;;;;;;;;4988156;28;20406;-74
2023/09/04 00:07:45;;;;;;;18.55;5.47;;;;;;;;;;4985459;28;20774;-74
2023/09/04 00:10:12;;;;;;;20.95;5.68;;;;;;;;;;4989498;28;20420;-73
2023/09/04 00:12:39;;;;;;;20.92;5.97;;;;;;;;;;4986028;28;20776;-73
2023/09/04 00:15:06;;;;;;;18.65;5.40;;;;;;;;;;4990772;28;20423;-74
2023/09/04 00:17:32;;;;;;;19.23;6.00;;;;;;;;;;4991898;28;20441;-76
2023/09/04 00:20:00;;;;;;;21.87;6.30;;;;;;;;;;4991127;28;20911;-75
2023/09/04 00:22:27;;;;;;;23.77;10.45;;;;;;;;;;4991375;28;20909;-76
2023/09/04 00:24:54;;;;;;;18.30;5.20;;;;;;;;;;4983101;28;20446;-76
2023/09/04 00:27:21;;;;;;;19.77;5.50;;;;;;;;;;4982575;28;20410;-75
2023/09/04 00:29:48;;;;;;;18.73;5.35;;;;;;;;;;4986671;28;20428;-73
2023/09/04 00:32:15;;;;;;;18.30;5.10;;;;;;;;;;4984668;28;20427;-73
2023/09/04 00:34:42;;;;;;;18.67;5.50;;;;;;;;;;4984776;28;20414;-76
2023/09/04 00:37:10;;;;;;;18.20;5.10;;;;;;;;;;4983379;28;20474;-74
2023/09/04 00:39:36;;;;;;;20.73;6.07;;;;;;;;;;4967189;28;20418;-74
2023/09/04 00:42:03;;;;;;;19.95;6.20;;;;;;;;;;4990258;28;20420;-76
2023/09/04 00:44:30;;;;;;;20.05;5.60;;;;;;;;;;4978614;28;20457;-75
2023/09/04 00:46:57;;;;;;;18.90;5.55;;;;;;;;;;4990359;28;20419;-75
2023/09/04 00:49:24;;;;;;;18.93;5.50;;;;;;;;;;4988940;28;20434;-75
2023/09/04 00:51:51;;;;;;;18.55;5.20;;;;;;;;;;4990370;28;20957;-74
2023/09/04 00:54:19;;;;;;;21.73;6.00;;;;;;;;;;4980828;28;20466;-74
2023/09/04 00:56:48;;;;;;;20.02;6.03;;;;;;;;;;4985121;28;20479;-74
2023/09/04 00:59:15;;;;;;;20.43;6.30;;;;;;;;;;4986152;28;20466;-75
2023/09/04 01:01:41;;;;;;;19.90;6.10;;;;;;;;;;4984221;28;20450;-75
2023/09/04 01:04:09;;;;;;;20.48;5.70;;;;;;;;;;4968195;28;20428;-75
2023/09/04 01:06:35;;;;;;;19.35;5.50;;;;;;;;;;4985396;28;20416;-77
2023/09/04 01:09:03;;;;;;;19.08;5.38;;;;;;;;;;5006826;28;20494;-75
2023/09/04 01:11:36;;;;;;;20.00;6.22;;;;;;;;;;4986571;28;20407;-76
2023/09/04 01:14:05;;;;;;;19.90;6.00;;;;;;;;;;4985316;28;20467;-74
2023/09/04 01:16:31;;;;;;;20.42;6.05;;;;;;;;;;4990300;28;20449;-75
2023/09/04 01:18:59;;;;;;;18.90;6.00;;;;;;;;;;4986570;28;20469;-75
2023/09/04 01:21:27;;;;;;;20.90;6.10;;;;;;;;;;4990387;28;20434;-75
2023/09/04 01:23:54;;;;;;;20.52;6.10;;;;;;;;;;4980596;28;20420;-75
2023/09/04 01:26:22;;;;;;;19.42;6.00;;;;;;;;;;4982675;28;20414;-74
2023/09/04 01:28:53;;;;;;;20.42;6.32;;;;;;;;;;4982953;28;20416;-76
2023/09/04 01:31:22;;;;;;;19.17;6.38;;;;;;;;;;4982910;28;20475;-75
2023/09/04 01:33:50;;;;;;;20.63;6.18;;;;;;;;;;4997402;28;20437;-75
2023/09/04 01:36:19;;;;;;;19.60;6.20;;;;;;;;;;4987841;28;20488;-74
2023/09/04 01:38:47;;;;;;;20.67;6.47;;;;;;;;;;4983185;28;20423;-75
2023/09/04 01:41:14;;;;;;;21.05;6.43;;;;;;;;;;4980896;28;20412;-75
2023/09/04 01:43:41;;;;;;;20.10;6.00;;;;;;;;;;4988609;28;20412;-75
2023/09/04 01:46:08;;;;;;;19.48;6.32;;;;;;;;;;4982783;28;20770;-77
2023/09/04 01:48:35;;;;;;;19.10;6.23;;;;;;;;;;4974355;28;20422;-76
2023/09/04 01:51:02;;;;;;;19.50;6.07;;;;;;;;;;4973343;28;20501;-76
2023/09/04 01:53:28;;;;;;;20.73;6.47;;;;;;;;;;4969626;28;20481;-75
2023/09/04 01:55:58;;;;;;;20.92;7.10;;;;;;;;;;4985156;28;20414;-74
2023/09/04 01:58:25;;;;;;;20.35;6.30;;;;;;;;;;4983368;28;20408;-76
2023/09/04 02:00:52;;;;;;;21.60;7.23;;;;;;;;;;4984453;28;20485;-75
2023/09/04 02:03:19;;;;;;;19.90;6.63;;;;;;;;;;5016302;28;20516;-73
2023/09/04 02:05:46;;;;;;;19.52;6.40;;;;;;;;;;4989895;28;20483;-78
2023/09/04 02:08:13;;;;;;;20.70;6.90;;;;;;;;;;4979355;28;20451;-74
2023/09/04 02:10:40;;;;;;;21.27;7.10;;;;;;;;;;4985460;28;20501;-75
2023/09/04 02:13:08;;;;;;;21.02;6.40;;;;;;;;;;4990363;28;20411;-74
2023/09/04 02:15:35;;;;;;;19.90;6.78;;;;;;;;;;4983009;28;20788;-75
2023/09/04 02:18:02;;;;;;;20.90;6.40;;;;;;;;;;4985565;28;20433;-76
2023/09/04 02:20:29;;;;;;;20.38;6.80;;;;;;;;;;4981213;28;20905;-72
2023/09/04 02:22:55;;;;;;;20.42;6.18;;;;;;;;;;4986055;28;20464;-76
2023/09/04 02:25:23;;;;;;;19.10;5.82;;;;;;;;;;4981891;28;20411;-77
2023/09/04 02:27:50;;;;;;;20.30;5.80;;;;;;;;;;4994946;28;20450;-77
2023/09/04 02:30:18;;;;;;;19.60;6.10;;;;;;;;;;4983602;28;20415;-75
2023/09/04 02:32:45;;;;;;;19.65;5.70;;;;;;;;;;4983268;28;20404;-75
2023/09/04 02:35:12;;;;;;;19.50;6.35;;;;;;;;;;4988183;28;20425;-75
2023/09/04 02:37:39;;;;;;;19.70;5.90;;;;;;;;;;4979890;28;20453;-76
2023/09/04 02:40:07;;;;;;;21.90;6.70;;;;;;;;;;4988091;28;20410;-76
2023/09/04 02:42:34;;;;;;;20.05;6.30;;;;;;;;;;4986457;28;20416;-77
2023/09/04 02:45:00;;;;;;;20.05;6.45;;;;;;;;;;4979711;28;20539;-75
2023/09/04 02:47:28;;;;;;;19.50;6.30;;;;;;;;;;4984963;28;20461;-76
2023/09/04 02:49:55;;;;;;;21.38;7.55;;;;;;;;;;4987647;28;20434;-75
2023/09/04 02:52:22;;;;;;;22.38;6.60;;;;;;;;;;4988964;28;20413;-77
2023/09/04 02:54:48;;;;;;;20.90;6.38;;;;;;;;;;4986838;28;20420;-76
2023/09/04 02:57:15;;;;;;;20.88;6.68;;;;;;;;;;4984483;28;20484;-74
2023/09/04 02:59:42;;;;;;;20.25;6.78;;;;;;;;;;4989137;28;20965;-75
2023/09/04 03:02:09;;;;;;;20.35;6.40;;;;;;;;;;4987356;28;20960;-77
2023/09/04 03:04:37;;;;;;;20.02;6.50;;;;;;;;;;4983129;28;20903;-74
2023/09/04 03:07:05;;;;;;;20.52;6.50;;;;;;;;;;4979147;28;21140;-76
2023/09/04 03:09:31;;;;;;;20.13;6.53;;;;;;;;;;4984207;28;20903;-74
2023/09/04 03:11:59;;;;;;;20.40;6.68;;;;;;;;;;4981318;28;21746;-77
2023/09/04 03:14:26;;;;;;;19.85;6.25;;;;;;;;;;4985749;28;20449;-77
2023/09/04 03:16:53;;;;;;;18.90;5.60;;;;;;;;;;4976827;28;20467;-75
2023/09/04 03:19:20;;;;;;;19.67;6.13;;;;;;;;;;4980077;28;20432;-74
2023/09/04 03:21:48;;;;;;;20.40;6.30;;;;;;;;;;4985004;28;20447;-76
2023/09/04 03:24:15;;;;;;;19.05;5.68;;;;;;;;;;4979253;28;20817;-77
2023/09/04 03:26:42;;;;;;;20.10;6.20;;;;;;;;;;4989758;28;20430;-76
2023/09/04 03:29:10;;;;;;;19.98;6.70;;;;;;;;;;4972198;28;20424;-76
2023/09/04 03:31:39;;;;;;;18.90;6.10;;;;;;;;;;4988947;28;20464;-76
2023/09/04 03:34:06;;;;;;;19.40;6.13;;;;;;;;;;4979438;28;20830;-75
2023/09/04 03:36:33;;;;;;;20.25;6.50;;;;;;;;;;4973851;28;20419;-76
2023/09/04 03:39:03;;;;;;;20.40;6.63;;;;;;;;;;5016476;28;20489;-76
2023/09/04 03:41:31;;;;;;;18.80;5.80;;;;;;;;;;4987324;28;20427;-76
2023/09/04 03:43:57;;;;;;;21.00;6.25;;;;;;;;;;4982256;28;20423;-75
2023/09/04 03:46:26;;;;;;;20.92;5.70;;;;;;;;;;4966494;28;20475;-75
2023/09/04 03:48:53;;;;;;;20.02;6.18;;;;;;;;;;4986465;28;20451;-74
2023/09/04 03:51:20;;;;;;;19.83;6.28;;;;;;;;;;4989110;28;20803;-75
2023/09/04 03:53:48;;;;;;;20.00;6.35;;;;;;;;;;4998336;28;20427;-76
2023/09/04 03:56:16;;;;;;;19.37;6.40;;;;;;;;;;4984508;28;20504;-73
2023/09/04 03:58:42;;;;;;;19.85;6.72;;;;;;;;;;4980469;28;20498;-77
2023/09/04 04:01:10;;;;;;;19.13;6.00;;;;;;;;;;5011235;28;20479;-77
2023/09/04 04:03:37;;;;;;;20.83;6.73;;;;;;;;;;4981334;28;20859;-73
2023/09/04 04:06:11;;;;;;;20.42;6.80;;;;;;;;;;4982545;28;20422;-74
2023/09/04 04:08:38;;;;;;;19.73;6.40;;;;;;;;;;4966266;28;20744;-75
2023/09/04 04:11:04;;;;;;;20.00;6.60;;;;;;;;;;5012047;28;20432;-77
2023/09/04 04:13:34;;;;;;;20.60;7.18;;;;;;;;;;5012705;28;20416;-76
2023/09/04 04:16:00;;;;;;;20.80;6.60;;;;;;;;;;5006929;28;20426;-76
2023/09/04 04:18:27;;;;;;;19.52;6.40;;;;;;;;;;4982814;28;20489;-76
2023/09/04 04:20:54;;;;;;;19.27;6.00;;;;;;;;;;4982346;28;20448;-76
2023/09/04 04:23:26;;;;;;;19.67;6.32;;;;;;;;;;4980773;28;20412;-76
2023/09/04 04:25:53;;;;;;;20.40;6.40;;;;;;;;;;4980294;28;20462;-73
2023/09/04 04:28:20;;;;;;;21.90;6.72;;;;;;;;;;4978800;28;20940;-76
2023/09/04 04:30:49;;;;;;;19.70;6.88;;;;;;;;;;4992877;28;20429;-75
2023/09/04 04:33:16;;;;;;;21.52;6.80;;;;;;;;;;5000420;28;20850;-76
2023/09/04 04:35:43;;;;;;;20.92;6.55;;;;;;;;;;4990020;28;20442;-74
2023/09/04 04:38:09;;;;;;;20.65;6.78;;;;;;;;;;4979100;28;20440;-75
2023/09/04 04:40:38;;;;;;;20.50;6.43;;;;;;;;;;4981905;28;20430;-74
2023/09/04 04:43:05;;;;;;;20.50;6.63;;;;;;;;;;4983657;28;20406;-76
2023/09/04 04:45:32;;;;;;;21.33;6.45;;;;;;;;;;4991374;28;20433;-77
2023/09/04 04:48:03;;;;;;;21.27;6.38;;;;;;;;;;5000526;28;20455;-76
2023/09/04 04:50:30;;;;;;;20.30;6.50;;;;;;;;;;4991060;28;20503;-77
2023/09/04 04:52:57;;;;;;;20.80;6.95;;;;;;;;;;4982828;28;20415;-75
2023/09/04 04:55:24;;;;;;;22.10;7.05;;;;;;;;;;4986323;28;20412;-75
2023/09/04 04:57:51;;;;;;;21.02;7.00;;;;;;;;;;5015272;28;20430;-76
2023/09/04 05:00:18;;;;;;;21.45;7.38;;;;;;;;;;4991420;28;20430;-74
2023/09/04 05:02:47;;;;;;;24.08;7.57;;;;;;;;;;5012565;28;20899;-76
2023/09/04 05:05:16;;;;;;;22.05;7.28;;;;;;;;;;4991546;28;20422;-76
2023/09/04 05:07:43;;;;;;;22.05;8.35;;;;;;;;;;4981265;28;20414;-76
2023/09/04 05:10:13;;;;;;;23.20;7.90;;;;;;;;;;5015497;28;20435;-78
2023/09/04 05:12:41;;;;;;;21.95;8.18;;;;;;;;;;4990306;28;20500;-77
2023/09/04 05:15:08;;;;;;;24.65;8.90;;;;;;;;;;4987394;28;20412;-76
2023/09/04 05:17:35;;;;;;;24.92;9.23;;;;;;;;;;4987556;28;21325;-76
2023/09/04 05:20:03;;;;;;;25.52;8.35;;;;;;;;;;4989032;28;20438;-76
2023/09/04 05:22:32;;;;;;;24.73;9.70;;;;;;;;;;4977064;28;20930;-76
2023/09/04 05:24:59;;;;;;;23.38;8.45;;;;;;;;;;4991059;28;20888;-75
2023/09/04 05:27:26;;;;;;;23.77;8.65;;;;;;;;;;4982311;28;20420;-74
2023/09/04 05:29:54;;;;;;;23.00;7.93;;;;;;;;;;4980371;28;20420;-75
2023/09/04 05:32:21;;;;;;;22.73;7.50;;;;;;;;;;4989126;28;20621;-76
2023/09/04 05:34:51;;;;;;;24.20;7.90;;;;;;;;;;4984065;28;20415;-74
2023/09/04 05:37:18;;;;;;;24.27;7.97;;;;;;;;;;4981811;28;20447;-73
2023/09/04 05:39:46;;;;;;;22.27;8.00;;;;;;;;;;5013608;28;20498;-76
2023/09/04 05:42:13;;;;;;;23.55;7.63;;;;;;;;;;4983702;28;20418;-76
2023/09/04 05:44:40;;;;;;;23.67;8.18;;;;;;;;;;4981815;28;20416;-77
2023/09/04 05:47:07;;;;;;;22.42;7.88;;;;;;;;;;4982235;28;20465;-74
2023/09/04 05:49:33;;;;;;;23.53;7.20;;;;;;;;;;4979888;28;20501;-75
2023/09/04 05:52:01;;;;;;;22.23;7.50;;;;;;;;;;4970349;28;20434;-76
2023/09/04 05:54:28;;;;;;;20.90;7.05;;;;;;;;;;5012446;28;20413;-75
2023/09/04 05:56:56;;;;;;;23.40;8.30;;;;;;;;;;4981421;28;20416;-74
2023/09/04 05:59:23;;;;;;;23.08;7.55;;;;;;;;;;4984256;28;20445;-74
2023/09/04 06:01:50;;;;;;;19.95;6.20;;;;;;;;;;4988866;28;20899;-75
2023/09/04 06:04:16;;;;;;;22.00;6.47;;;;;;;;;;4980841;28;20414;-74
2023/09/04 06:06:43;;;;;;;18.63;5.90;;;;;;;;;;4979135;28;20479;-76
2023/09/04 06:09:10;;;;;;;19.40;5.30;;;;;;;;;;4979850;28;20929;-75
2023/09/04 06:11:36;;;;;;;19.42;5.50;;;;;;;;;;4989828;28;20775;-76
2023/09/04 06:14:04;;;;;;;18.23;5.13;;;;;;;;;;5015875;28;20459;-75
2023/09/04 06:16:32;;;;;;;18.83;5.55;;;;;;;;;;4989109;28;20431;-74
2023/09/04 06:18:59;;;;;;;22.10;5.67;;;;;;;;;;4982570;28;20488;-75
2023/09/04 06:21:26;;;;;;;21.20;4.60;;;;;;;;;;4981975;28;20441;-74
2023/09/04 06:23:53;;;;;;;18.90;4.47;;;;;;;;;;4990234;28;20426;-74
2023/09/04 06:26:20;;;;;;;19.00;5.35;;;;;;;;;;4989114;28;20493;-75
2023/09/04 06:28:46;;;;;;;17.63;4.30;;;;;;;;;;4986611;28;20415;-74
2023/09/04 06:31:15;;;;;;;17.05;3.95;;;;;;;;;;4978337;28;20466;-74
2023/09/04 06:33:43;;;;;;;16.70;3.67;;;;;;;;;;4983607;28;21011;-76
2023/09/04 06:36:10;;;;;;;16.80;3.90;;;;;;;;;;4982660;28;20459;-75
2023/09/04 06:38:37;;;;;;;16.20;3.20;;;;;;;;;;4979812;28;20438;-74
2023/09/04 06:41:04;;;;;;;17.52;3.45;;;;;;;;;;4980615;28;20418;-74
2023/09/04 06:43:31;;;;;;;17.95;4.18;;;;;;;;;;4998178;28;20484;-74
2023/09/04 06:46:02;;;;;;;16.77;3.60;;;;;;;;;;4988242;28;20440;-75
2023/09/04 06:48:31;;;;;;;16.83;3.03;;;;;;;;;;4989702;28;20863;-75
2023/09/04 06:50:59;;;;;;;15.40;2.80;;;;;;;;;;4987843;28;20823;-74
2023/09/04 06:53:27;;;;;;;16.42;3.10;;;;;;;;;;4988341;28;20763;-74
2023/09/04 06:55:53;;;;;;;;;;;;;;;;;;4989374;28;20051;-74
2023/09/04 06:58:20;;;;;;;;;;;;;;;;;;5012039;28;19922;-74
2023/09/04 07:00:47;;;;;;;15.00;3.03;;;;;;;;;;5003419;28;20262;-74
2023/09/04 07:03:18;;;;;;;18.45;3.60;;;;;;;;;;4980410;28;20861;-74
2023/09/04 07:05:47;;;;;;;16.40;3.63;;;;;;;;;;4984565;28;20918;-74
2023/09/04 07:08:14;;;;;;;17.33;2.80;;;;;;;;;;4979969;28;20415;-74
2023/09/04 07:10:40;;;;;;;14.98;2.60;;;;;;;;;;4978549;28;20437;-75
2023/09/04 07:13:08;;;;;;;15.30;2.30;;;;;;;;;;4979934;28;20506;-75
2023/09/04 07:15:34;;;;;;;16.50;2.90;;;;;;;;;;4989004;28;20438;-75
2023/09/04 07:18:03;;;;;;;15.48;2.60;;;;;;;;;;4983355;28;20428;-75
2023/09/04 07:20:31;;;;;;;17.40;3.00;;;;;;;;;;4982292;28;20412;-74
2023/09/04 07:23:00;;;;;;;15.90;2.85;;;;;;;;;;4983652;28;20823;-75
2023/09/04 07:25:45;;;;;;;16.92;2.50;;;;;;;;;;4988062;28;20419;-74
2023/09/04 07:28:12;;;;;;;15.02;2.38;;;;;;;;;;4978577;28;20410;-74
2023/09/04 07:30:40;;;;;;;15.68;2.70;;;;;;;;;;4980263;28;20414;-75
2023/09/04 07:33:07;;;;;;;16.20;3.00;;;;;;;;;;4978158;28;20423;-77
2023/09/04 07:35:34;;;;;;;16.20;2.50;;;;;;;;;;4980439;28;20424;-75
2023/09/04 07:38:03;;;;;;;16.08;2.60;;;;;;;;;;4977479;28;20444;-75
2023/09/04 07:40:30;;;;;;;16.30;2.55;;;;;;;;;;4986032;28;20511;-77
2023/09/04 07:42:56;;;;;;;15.90;2.60;;;;;;;;;;4988041;28;20485;-73
2023/09/04 07:45:24;;;;;;;15.10;2.20;;;;;;;;;;4979011;28;20454;-75
2023/09/04 07:47:52;;;;;;;16.20;2.40;;;;;;;;;;4982055;28;20427;-75
2023/09/04 07:50:20;;;;;;;16.75;2.30;;;;;;;;;;4985814;28;20475;-76
2023/09/04 07:52:47;;;;;;;15.90;2.40;;;;;;;;;;4982373;28;20452;-75
2023/09/04 07:55:15;;;;;;;15.20;2.20;;;;;;;;;;4980959;28;20426;-75
2023/09/04 07:57:43;;;;;;;15.88;2.35;;;;;;;;;;4983307;28;21413;-75
2023/09/04 08:00:13;;;;;;;18.85;2.33;;;;;;;;;;5013656;28;20519;-77
2023/09/04 08:02:39;;;;;;;15.00;2.47;;;;;;;;;;4991270;28;20410;-74
2023/09/04 08:05:06;;;;;;;14.90;2.30;;;;;;;;;;4983916;28;20517;-75
2023/09/04 08:07:34;;;;;;;15.10;2.30;;;;;;;;;;4998137;28;20419;-75
2023/09/04 08:10:01;;;;;;;17.50;2.55;;;;;;;;;;4982914;28;20794;-76
2023/09/04 08:12:29;;;;;;;15.38;2.10;;;;;;;;;;4986934;28;20428;-76
2023/09/04 08:14:56;;;;;;;16.13;2.90;;;;;;;;;;4990448;28;20415;-76
2023/09/04 08:17:23;;;;;;;15.50;2.60;;;;;;;;;;4990169;28;20805;-75
2023/09/04 08:19:51;;;;;;;15.40;2.30;;;;;;;;;;4985103;28;20486;-76
2023/09/04 08:22:17;;;;;;;15.30;2.35;;;;;;;;;;4989991;28;20939;-77
2023/09/04 08:24:48;;;;;;;17.60;2.40;;;;;;;;;;4985787;28;20419;-74
2023/09/04 08:27:15;;;;;;;15.07;2.10;;;;;;;;;;4989404;28;20427;-76
2023/09/04 08:29:43;;;;;;;16.37;2.33;;;;;;;;;;5015293;28;20916;-75
2023/09/04 08:32:09;;;;;;;86.00;9.17;;;;;;;;;;4978848;28;20426;-76
2023/09/04 08:34:37;;;;;;;15.35;2.20;;;;;;;;;;4982999;28;20418;-74
2023/09/04 08:37:04;;;;;;;14.80;2.30;;;;;;;;;;4982331;28;20433;-75
2023/09/04 08:39:31;;;;;;;14.90;2.50;;;;;;;;;;4984336;28;20423;-76
2023/09/04 08:41:58;;;;;;;15.30;2.30;;;;;;;;;;4979162;28;20419;-75
2023/09/04 08:44:25;;;;;;;15.88;2.10;;;;;;;;;;5017263;28;20461;-76
2023/09/04 08:46:54;;;;;;;14.57;2.10;;;;;;;;;;5016033;28;20429;-75
2023/09/04 08:49:21;;;;;;;15.82;2.00;;;;;;;;;;4982869;28;20501;-76
2023/09/04 08:51:49;;;;;;;14.80;2.15;;;;;;;;;;5012441;28;20437;-76
2023/09/04 08:54:16;;;;;;;15.88;2.40;;;;;;;;;;4991646;28;20424;-73
2023/09/04 08:56:42;;;;;;;15.00;2.10;;;;;;;;;;4990289;28;20521;-75
2023/09/04 08:59:10;;;;;;;14.85;2.05;;;;;;;;;;4985074;28;20454;-74
2023/09/04 09:01:37;;;;;;;15.43;2.10;;;;;;;;;;4982680;28;20748;-77
2023/09/04 09:04:08;;;;;;;15.50;2.30;;;;;;;;;;4985950;28;20911;-75
2023/09/04 09:06:36;;;;;;;14.50;2.00;;;;;;;;;;5000667;28;20456;-77
2023/09/04 09:09:03;;;;;;;18.92;2.97;;;;;;;;;;4982593;28;20413;-76
2023/09/04 09:11:31;;;;;;;14.77;1.90;;;;;;;;;;4983112;28;20423;-75
2023/09/04 09:14:02;;;;;;;15.32;2.22;;;;;;;;;;4983804;28;20420;-75
2023/09/04 09:16:28;;;;;;;15.05;2.30;;;;;;;;;;4983309;28;20444;-76
2023/09/04 09:18:58;;;;;;;15.85;2.30;;;;;;;;;;5017754;28;20436;-73
2023/09/04 09:21:27;;;;;;;14.63;2.10;;;;;;;;;;4990135;28;20448;-76
2023/09/04 09:24:09;;;;;;;15.10;2.30;;;;;;;;;;4981291;28;20450;-75
2023/09/04 09:26:37;;;;;;;14.70;2.10;;;;;;;;;;4989617;28;20410;-75
2023/09/04 09:29:06;;;;;;;15.35;2.03;;;;;;;;;;4986291;28;20834;-72
2023/09/04 09:31:34;;;;;;;15.15;2.00;;;;;;;;;;4981076;28;20440;-76
2023/09/04 09:34:03;;;;;;;15.35;2.22;;;;;;;;;;4961691;28;20514;-74
2023/09/04 09:36:31;;;;;;;15.80;2.50;;;;;;;;;;4988250;28;20913;-76
2023/09/04 09:38:58;;;;;;;14.90;2.00;;;;;;;;;;4972629;28;20968;-75
2023/09/04 09:41:25;;;;;;;15.75;2.10;;;;;;;;;;4980741;28;20424;-75
2023/09/04 09:43:51;;;;;;;15.40;2.27;;;;;;;;;;4989048;28;20415;-75
2023/09/04 09:46:18;;;;;;;15.23;2.20;;;;;;;;;;4986008;28;20914;-76
2023/09/04 09:48:45;;;;;;;14.20;1.70;;;;;;;;;;4983017;28;20404;-75
2023/09/04 09:51:12;;;;;;;15.10;1.88;;;;;;;;;;4990462;28;20897;-76
2023/09/04 09:53:46;;;;;;;15.70;2.30;;;;;;;;;;4983572;28;20435;-74
2023/09/04 09:56:14;;;;;;;35.22;4.60;;;;;;;;;;4986973;28;20409;-77
2023/09/04 09:58:43;;;;;;;14.45;2.10;;;;;;;;;;4982923;28;20420;-76
2023/09/04 10:01:10;;;;;;;14.68;2.10;;;;;;;;;;4989805;28;20882;-76
2023/09/04 10:03:38;;;;;;;17.48;2.08;;;;;;;;;;4985207;28;20420;-77
2023/09/04 10:06:05;;;;;;;15.02;2.10;;;;;;;;;;4983058;28;20489;-76
2023/09/04 10:08:36;;;;;;;18.42;2.10;;;;;;;;;;4988388;28;20580;-74
2023/09/04 10:11:07;;;;;;;17.38;1.88;;;;;;;;;;4978516;28;20506;-76
2023/09/04 10:13:36;;;;;;;17.80;2.10;;;;;;;;;;4979595;28;20407;-75
2023/09/04 10:16:05;;;;;;;19.00;1.95;;;;;;;;;;4980557;28;20444;-75
2023/09/04 10:18:34;;;;;;;22.05;2.63;;;;;;;;;;4979270;28;20888;-76
2023/09/04 10:21:02;;;;;;;18.40;1.90;;;;;;;;;;4982941;28;20414;-74
2023/09/04 10:23:31;;;;;;;17.85;2.28;;;;;;;;;;4977247;28;20905;-75
2023/09/04 10:26:06;;;;;;;16.45;2.00;;;;;;;;;;4984671;28;20455;-75
2023/09/04 10:28:36;;;;;;;15.00;2.00;;;;;;;;;;4988980;28;20431;-75
2023/09/04 10:31:12;;;;;;;15.30;1.98;;;;;;;;;;4981762;28;20402;-75
2023/09/04 10:33:40;;;;;;;14.40;1.92;;;;;;;;;;4979665;28;20475;-75
2023/09/04 10:36:08;;;;;;;14.90;2.00;;;;;;;;;;4980446;28;20415;-75
2023/09/04 10:38:36;;;;;;;15.15;2.03;;;;;;;;;;4987894;28;20464;-75
2023/09/04 10:41:04;;;;;;;15.50;1.90;;;;;;;;;;4982392;28;20414;-75
2023/09/04 10:43:38;;;;;;;14.90;2.10;;;;;;;;;;4977662;28;20414;-76
2023/09/04 10:46:06;;;;;;;14.50;1.80;;;;;;;;;;4985729;28;20419;-75
2023/09/04 10:48:39;;;;;;;14.77;1.90;;;;;;;;;;4979731;28;20423;-75
2023/09/04 10:51:21;;;;;;;15.85;2.30;;;;;;;;;;4982034;28;20463;-77
2023/09/04 10:53:47;;;;;;;14.75;2.15;;;;;;;;;;4976605;28;20975;-76
2023/09/04 10:56:14;;;;;;;18.13;2.20;;;;;;;;;;4982540;28;20462;-76
2023/09/04 10:58:57;;;;;;;17.23;2.00;;;;;;;;;;4980071;28;20497;-75
2023/09/04 11:01:38;;;;;;;14.80;1.90;;;;;;;;;;4998602;28;21069;-77
2023/09/04 11:04:07;;;;;;;14.65;2.03;;;;;;;;;;4965054;28;20419;-77
2023/09/04 11:06:35;;;;;;;15.85;2.40;;;;;;;;;;4979588;28;20443;-75
2023/09/04 11:09:03;;;;;;;15.80;2.00;;;;;;;;;;4978354;28;20474;-77
2023/09/04 11:11:31;;;;;;;15.07;1.90;;;;;;;;;;4987649;28;20426;-76
2023/09/04 11:13:58;;;;;;;15.05;2.00;;;;;;;;;;4982907;28;20423;-79
2023/09/04 11:16:28;;;;;;;14.88;1.90;;;;;;;;;;4984745;28;20418;-75
2023/09/04 11:19:03;;;;;;;17.02;2.00;;;;;;;;;;4962107;28;20434;-76
2023/09/04 11:21:32;;;;;;;15.00;1.90;;;;;;;;;;4987412;28;20411;-74
2023/09/04 11:23:59;;;;;;;15.25;1.90;;;;;;;;;;4983720;28;20487;-76
2023/09/04 11:26:26;;;;;;;15.00;2.08;;;;;;;;;;4978543;28;20419;-75
2023/09/04 11:28:52;;;;;;;15.10;2.17;;;;;;;;;;4988252;28;20496;-75
2023/09/04 11:31:21;;;;;;;14.68;1.90;;;;;;;;;;4980670;28;20427;-75
2023/09/04 11:33:48;;;;;;;14.60;2.20;;;;;;;;;;4975712;28;20942;-76
2023/09/04 11:36:15;;;;;;;15.10;2.00;;;;;;;;;;4970006;28;20763;-75
2023/09/04 11:38:44;;;;;;;14.45;1.90;;;;;;;;;;4983296;28;20509;-75
2023/09/04 11:41:14;;;;;;;16.60;2.20;;;;;;;;;;4983685;28;20426;-74
2023/09/04 11:43:41;;;;;;;15.70;2.10;;;;;;;;;;4984542;28;20526;-75
2023/09/04 11:46:09;;;;;;;15.20;2.00;;;;;;;;;;4988367;28;20463;-75
2023/09/04 11:48:36;;;;;;;15.32;2.13;;;;;;;;;;4962849;28;20424;-75
2023/09/04 11:51:04;;;;;;;15.60;1.90;;;;;;;;;;5000497;28;20482;-77
2023/09/04 11:53:31;;;;;;;14.82;2.03;;;;;;;;;;4988245;28;20465;-74
2023/09/04 11:55:59;;;;;;;15.18;2.10;;;;;;;;;;5009595;28;20420;-76
2023/09/04 11:58:26;;;;;;;15.60;1.70;;;;;;;;;;4987887;28;20427;-75
2023/09/04 12:00:53;;;;;;;118.20;25.67;;;;;;;;;;4980051;28;20494;-75
2023/09/04 12:03:20;;;;;;;19.80;2.30;;;;;;;;;;4985342;28;20472;-75
2023/09/04 12:05:51;;;;;;;22.50;2.20;;;;;;;;;;4982129;28;20476;-75
2023/09/04 12:08:18;;;;;;;22.30;2.20;;;;;;;;;;4988323;28;20410;-76
2023/09/04 12:10:45;;;;;;;22.45;2.10;;;;;;;;;;4977813;28;20406;-76
2023/09/04 12:13:14;;;;;;;21.38;2.10;;;;;;;;;;4986270;28;20432;-75
2023/09/04 12:15:41;;;;;;;21.10;2.17;;;;;;;;;;4978175;28;20426;-77
2023/09/04 12:18:09;;;;;;;21.27;2.10;;;;;;;;;;4984744;28;20444;-73
2023/09/04 12:20:36;;;;;;;20.40;2.08;;;;;;;;;;4986824;28;20853;-75
2023/09/04 12:23:04;;;;;;;20.40;2.10;;;;;;;;;;4985599;28;20430;-75
2023/09/04 12:25:35;;;;;;;20.50;2.00;;;;;;;;;;4987217;28;20459;-75
2023/09/04 12:28:03;;;;;;;21.60;2.25;;;;;;;;;;5009535;28;20458;-75
2023/09/04 12:30:35;;;;;;;21.10;2.00;;;;;;;;;;4974492;28;20424;-77
2023/09/04 12:33:04;;;;;;;20.20;1.70;;;;;;;;;;4997365;28;20518;-77
2023/09/04 12:35:32;;;;;;;20.40;1.90;;;;;;;;;;4982787;28;20436;-77
2023/09/04 12:37:59;;;;;;;19.97;1.90;;;;;;;;;;4974901;28;20475;-76
2023/09/04 12:40:25;;;;;;;20.30;1.90;;;;;;;;;;4976384;28;20529;-80
2023/09/04 12:42:52;;;;;;;19.50;1.90;;;;;;;;;;4981895;28;20428;-75
2023/09/04 12:45:19;;;;;;;19.50;1.83;;;;;;;;;;4984378;28;20437;-75
2023/09/04 12:47:47;;;;;;;14.30;1.90;;;;;;;;;;4985290;28;20464;-76
2023/09/04 12:50:14;;;;;;;14.40;1.70;;;;;;;;;;4979358;28;20779;-75
2023/09/04 12:52:46;;;;;;;14.10;1.70;;;;;;;;;;4980934;28;20493;-76
2023/09/04 12:55:13;;;;;;;15.80;2.00;;;;;;;;;;5005177;28;20841;-77
2023/09/04 12:57:40;;;;;;;14.00;1.60;;;;;;;;;;4982558;28;20960;-76
2023/09/04 13:00:09;;;;;;;14.30;1.92;;;;;;;;;;4988368;28;20544;-75
2023/09/04 13:02:36;;;;;;;15.40;2.00;;;;;;;;;;4992315;28;20426;-76
2023/09/04 13:05:05;;;;;;;14.30;1.80;;;;;;;;;;5003517;28;20752;-75
2023/09/04 13:07:33;;;;;;;14.48;1.90;;;;;;;;;;4981784;28;20431;-76
2023/09/04 13:10:00;;;;;;;15.07;1.73;;;;;;;;;;4973061;28;20908;-74
2023/09/04 13:12:27;;;;;;;15.15;1.90;;;;;;;;;;4980397;28;20418;-75
2023/09/04 13:14:54;;;;;;;14.25;1.90;;;;;;;;;;4988591;28;20406;-74
2023/09/04 13:17:24;;;;;;;14.13;1.63;;;;;;;;;;4981416;28;20899;-75
2023/09/04 13:19:51;;;;;;;52.00;4.50;;;;;;;;;;4983984;28;20872;-75
2023/09/04 13:22:19;;;;;;;15.10;1.90;;;;;;;;;;4967996;28;20427;-75
2023/09/04 13:24:46;;;;;;;15.40;1.60;;;;;;;;;;4984853;28;20420;-74
2023/09/04 13:27:13;;;;;;;14.57;1.70;;;;;;;;;;4982840;28;21213;-74
2023/09/04 13:29:40;;;;;;;14.40;1.70;;;;;;;;;;4988668;28;20411;-73
2023/09/04 13:32:08;;;;;;;14.70;1.73;;;;;;;;;;5014397;28;20460;-77
2023/09/04 13:34:36;;;;;;;14.60;1.70;;;;;;;;;;4984212;28;20418;-74
2023/09/04 13:37:04;;;;;;;14.95;2.00;;;;;;;;;;5013960;28;20420;-73
2023/09/04 13:39:32;;;;;;;32.10;3.33;;;;;;;;;;4981920;28;20908;-73
2023/09/04 13:41:59;;;;;;;15.50;1.70;;;;;;;;;;4988200;28;20514;-75
2023/09/04 13:44:26;;;;;;;15.40;1.53;;;;;;;;;;5006137;28;20418;-75
2023/09/04 13:46:52;;;;;;;21.80;2.30;;;;;;;;;;4980521;28;20422;-73
2023/09/04 13:49:19;;;;;;;17.50;2.20;;;;;;;;;;4996932;28;20453;-74
2023/09/04 13:51:46;;;;;;;15.00;1.70;;;;;;;;;;4988155;28;20428;-75
2023/09/04 13:54:12;;;;;;;15.00;1.70;;;;;;;;;;4965720;28;20502;-74
2023/09/04 13:56:42;;;;;;;14.60;1.60;;;;;;;;;;4987267;28;20494;-75
2023/09/04 13:59:08;;;;;;;15.15;1.75;;;;;;;;;;4985841;28;20422;-74
2023/09/04 14:01:36;;;;;;;15.00;1.73;;;;;;;;;;4985439;28;20488;-77
2023/09/04 14:04:05;;;;;;;14.70;1.70;;;;;;;;;;4989166;28;20501;-75
2023/09/04 14:06:33;;;;;;;14.63;1.55;;;;;;;;;;4990082;28;20430;-76
2023/09/04 14:09:00;;;;;;;15.00;1.70;;;;;;;;;;4978277;28;20503;-75
2023/09/04 14:11:26;;;;;;;14.60;1.70;;;;;;;;;;4978286;28;20446;-75
2023/09/04 14:13:54;;;;;;;14.60;1.45;;;;;;;;;;4971309;28;20432;-77
2023/09/04 14:16:22;;;;;;;14.85;1.48;;;;;;;;;;5011217;28;20786;-75
2023/09/04 14:18:50;;;;;;;15.43;1.70;;;;;;;;;;4983987;28;20410;-78
2023/09/04 14:21:30;;;;;;;15.00;1.50;;;;;;;;;;4988143;28;20428;-75
2023/09/04 14:23:56;;;;;;;14.50;1.40;;;;;;;;;;4983239;28;20522;-74
2023/09/04 14:26:24;;;;;;;15.20;1.60;;;;;;;;;;4990425;28;20457;-77
2023/09/04 14:28:51;;;;;;;15.30;1.50;;;;;;;;;;4981518;28;20410;-76
2023/09/04 14:31:19;;;;;;;17.52;2.10;;;;;;;;;;4982615;28;20467;-75
2023/09/04 14:33:46;;;;;;;16.70;1.50;;;;;;;;;;4982229;28;20423;-75